sensor_id;sensor_type;location;lat;lon;timestamp;pressure;altitude;pressure_sealevel;temperature;humidity
37878;BME280;23715;53.652;8.516;2023-03-04T00:00:44;102847.13;;;5.97;100.00
37878;BME280;23715;53.652;8.516;2023-03-04T00:05:46;102847.13;;;5.81;100.00
37878;BME280;23715;53.652;8.516;2023-03-04T00:10:47;102864.53;;;5.93;100.00
37878;BME280;23715;53.652;8.516;2023-03-04T00:15:47;102848.45;;;5.96;100.00
37878;BME280;23715;53.652;8.516;2023-03-04T00:20:48;102830.94;;;5.86;100.00
37878;BME280;23715;53.652;8.516;2023-03-04T00:25:49;102814.27;;;6.06;100.00
37878;BME280;23715;53.652;8.516;2023-03-04T00:30:49;102790.89;;;5.99;100.00
37878;BME280;23715;53.652;8.516;2023-03-04T00:35:52;102765.37;;;6.04;100.00
37878;BME280;23715;53.652;8.516;2023-03-04T00:41:01;102730.41;;;5.85;100.00
37878;BME280;23715;53.652;8.516;2023-03-04T00:46:22;102717.33;;;5.65;100.00
37878;BME280;23715;53.652;8.516;2023-03-04T00:51:29;102735.66;;;5.75;100.00
37878;BME280;23715;53.652;8.516;2023-03-04T00:56:31;102727.35;;;5.71;100.00
37878;BME280;23715;53.652;8.516;2023-03-04T01:01:31;102733.39;;;5.64;100.00
37878;BME280;23715;53.652;8.516;2023-03-04T01:06:31;102725.52;;;5.59;100.00
37878;BME280;23715;53.652;8.516;2023-03-04T01:11:32;102741.64;;;5.70;100.00
37878;BME280;23715;53.652;8.516;2023-03-04T01:16:31;102755.98;;;5.92;100.00
37878;BME280;23715;53.652;8.516;2023-03-04T01:21:31;102756.80;;;5.94;100.00
37878;BME280;23715;53.652;8.516;2023-03-04T01:26:33;102740.34;;;5.93;100.00
37878;BME280;23715;53.652;8.516;2023-03-04T01:31:33;102739.05;;;5.80;100.00
37878;BME280;23715;53.652;8.516;2023-03-04T01:36:33;102744.06;;;6.02;100.00
37878;BME280;23715;53.652;8.516;2023-03-04T01:41:33;102742.77;;;6.01;100.00
37878;BME280;23715;53.652;8.516;2023-03-04T01:46:33;102734.75;;;5.76;100.00
37878;BME280;23715;53.652;8.516;2023-03-04T01:51:34;102736.14;;;5.99;100.00
37878;BME280;23715;53.652;8.516;2023-03-04T01:56:36;102724.55;;;5.87;100.00
37878;BME280;23715;53.652;8.516;2023-03-04T02:01:37;102724.55;;;5.87;100.00
37878;BME280;23715;53.652;8.516;2023-03-04T02:06:39;102728.36;;;5.80;100.00
37878;BME280;23715;53.652;8.516;2023-03-04T02:11:40;102729.18;;;5.82;100.00
37878;BME280;23715;53.652;8.516;2023-03-04T02:16:41;102734.48;;;6.09;100.00
37878;BME280;23715;53.652;8.516;2023-03-04T02:21:41;102728.98;;;6.13;100.00
37878;BME280;23715;53.652;8.516;2023-03-04T02:26:44;102721.98;;;5.97;100.00
37878;BME280;23715;53.652;8.516;2023-03-04T02:31:47;102724.69;;;6.09;100.00
37878;BME280;23715;53.652;8.516;2023-03-04T02:36:50;102700.95;;;5.88;100.00
37878;BME280;23715;53.652;8.516;2023-03-04T02:41:54;102708.23;;;5.96;100.00
37878;BME280;23715;53.652;8.516;2023-03-04T02:46:59;102701.56;;;5.96;100.00
37878;BME280;23715;53.652;8.516;2023-03-04T02:52:06;102721.55;;;5.84;100.00
37878;BME280;23715;53.652;8.516;2023-03-04T02:57:09;102741.09;;;5.85;100.00
37878;BME280;23715;53.652;8.516;2023-03-04T03:02:12;102775.11;;;5.66;100.00
37878;BME280;23715;53.652;8.516;2023-03-04T03:07:14;102813.94;;;5.63;100.00
37878;BME280;23715;53.652;8.516;2023-03-04T03:12:16;102913.77;;;5.58;100.00
37878;BME280;23715;53.652;8.516;2023-03-04T03:17:16;102929.46;;;5.67;100.00
37878;BME280;23715;53.652;8.516;2023-03-04T03:22:17;102986.19;;;5.45;100.00
37878;BME280;23715;53.652;8.516;2023-03-04T03:27:17;103076.38;;;5.49;100.00
37878;BME280;23715;53.652;8.516;2023-03-04T03:32:18;103187.34;;;5.41;100.00
37878;BME280;23715;53.652;8.516;2023-03-04T03:37:20;103280.05;;;5.51;100.00
37878;BME280;23715;53.652;8.516;2023-03-04T03:42:25;103361.12;;;5.47;100.00
37878;BME280;23715;53.652;8.516;2023-03-04T03:47:25;103426.71;;;5.38;100.00
37878;BME280;23715;53.652;8.516;2023-03-04T03:52:28;103516.08;;;5.39;100.00
37878;BME280;23715;53.652;8.516;2023-03-04T03:57:29;103590.52;;;5.53;100.00
37878;BME280;23715;53.652;8.516;2023-03-04T04:02:28;103648.42;;;5.50;100.00
37878;BME280;23715;53.652;8.516;2023-03-04T04:07:30;103732.62;;;5.43;100.00
37878;BME280;23715;53.652;8.516;2023-03-04T04:12:31;103829.69;;;5.38;100.00
37878;BME280;23715;53.652;8.516;2023-03-04T04:17:31;103958.25;;;5.37;100.00
37878;BME280;23715;53.652;8.516;2023-03-04T04:22:37;104112.56;;;5.41;100.00
37878;BME280;23715;53.652;8.516;2023-03-04T04:27:47;104285.92;;;5.55;100.00
37878;BME280;23715;53.652;8.516;2023-03-04T04:32:47;104426.30;;;5.25;100.00
37878;BME280;23715;53.652;8.516;2023-03-04T04:37:47;104619.77;;;5.28;100.00
37878;BME280;23715;53.652;8.516;2023-03-04T04:42:47;104799.91;;;5.44;100.00
37878;BME280;23715;53.652;8.516;2023-03-04T04:47:48;104950.34;;;5.58;100.00
37878;BME280;23715;53.652;8.516;2023-03-04T04:52:48;105067.39;;;5.54;100.00
37878;BME280;23715;53.652;8.516;2023-03-04T04:57:48;105148.87;;;5.66;100.00
37878;BME280;23715;53.652;8.516;2023-03-04T05:02:52;105235.18;;;5.59;100.00
37878;BME280;23715;53.652;8.516;2023-03-04T05:07:51;105287.28;;;5.61;100.00
37878;BME280;23715;53.652;8.516;2023-03-04T05:13:03;105337.61;;;5.64;100.00
37878;BME280;23715;53.652;8.516;2023-03-04T05:18:05;105337.93;;;6.14;100.00
37878;BME280;23715;53.652;8.516;2023-03-04T05:23:06;105337.93;;;6.14;100.00
37878;BME280;23715;53.652;8.516;2023-03-04T05:28:08;105139.59;;;5.85;100.00
37878;BME280;23715;53.652;8.516;2023-03-04T05:33:13;104870.22;;;5.77;100.00
37878;BME280;23715;53.652;8.516;2023-03-04T05:38:15;104286.52;;;6.24;100.00
37878;BME280;23715;53.652;8.516;2023-03-04T05:43:17;104286.52;;;6.24;100.00
37878;BME280;23715;53.652;8.516;2023-03-04T05:48:17;103954.15;;;6.02;100.00
37878;BME280;23715;53.652;8.516;2023-03-04T05:53:17;103659.42;;;5.78;100.00
37878;BME280;23715;53.652;8.516;2023-03-04T05:58:17;103349.27;;;5.93;100.00
37878;BME280;23715;53.652;8.516;2023-03-04T06:03:21;103234.45;;;5.77;100.00
37878;BME280;23715;53.652;8.516;2023-03-04T06:08:23;103234.45;;;5.77;100.00
37878;BME280;23715;53.652;8.516;2023-03-04T06:13:23;103136.82;;;5.66;100.00
37878;BME280;23715;53.652;8.516;2023-03-04T06:18:25;103081.11;;;6.00;100.00
37878;BME280;23715;53.652;8.516;2023-03-04T06:23:26;102999.14;;;6.02;100.00
37878;BME280;23715;53.652;8.516;2023-03-04T06:28:26;102923.28;;;5.93;100.00
37878;BME280;23715;53.652;8.516;2023-03-04T06:33:26;102860.46;;;5.96;100.00
37878;BME280;23715;53.652;8.516;2023-03-04T06:38:26;102820.90;;;6.08;100.00
37878;BME280;23715;53.652;8.516;2023-03-04T06:43:26;102775.22;;;6.27;100.00
37878;BME280;23715;53.652;8.516;2023-03-04T06:48:27;102709.39;;;6.13;100.00
37878;BME280;23715;53.652;8.516;2023-03-04T06:53:29;102641.66;;;6.03;100.00
37878;BME280;23715;53.652;8.516;2023-03-04T06:58:29;102578.50;;;6.13;100.00
37878;BME280;23715;53.652;8.516;2023-03-04T07:03:30;102540.12;;;6.15;100.00
37878;BME280;23715;53.652;8.516;2023-03-04T07:08:32;102517.96;;;6.45;100.00
37878;BME280;23715;53.652;8.516;2023-03-04T07:13:32;102485.23;;;6.61;100.00
37878;BME280;23715;53.652;8.516;2023-03-04T07:18:35;102423.08;;;6.56;100.00
37878;BME280;23715;53.652;8.516;2023-03-04T07:23:35;102423.08;;;6.56;100.00
37878;BME280;23715;53.652;8.516;2023-03-04T07:28:36;102417.73;;;6.56;100.00
37878;BME280;23715;53.652;8.516;2023-03-04T07:33:36;102415.77;;;6.18;100.00
37878;BME280;23715;53.652;8.516;2023-03-04T07:38:37;102414.41;;;5.86;100.00
37878;BME280;23715;53.652;8.516;2023-03-04T07:43:41;102436.84;;;5.60;100.00
37878;BME280;23715;53.652;8.516;2023-03-04T07:48:43;102449.52;;;5.77;100.00
37878;BME280;23715;53.652;8.516;2023-03-04T07:53:48;102449.52;;;5.77;100.00
37878;BME280;23715;53.652;8.516;2023-03-04T07:58:48;102426.66;;;6.03;100.00
37878;BME280;23715;53.652;8.516;2023-03-04T08:03:50;102407.73;;;5.86;100.00
37878;BME280;23715;53.652;8.516;2023-03-04T08:08:58;102379.73;;;5.64;100.00
37878;BME280;23715;53.652;8.516;2023-03-04T08:13:58;102353.47;;;6.08;100.00
37878;BME280;23715;53.652;8.516;2023-03-04T08:19:01;102340.66;;;5.94;100.00
37878;BME280;23715;53.652;8.516;2023-03-04T08:24:03;102338.73;;;5.77;100.00
37878;BME280;23715;53.652;8.516;2023-03-04T08:29:07;102354.54;;;5.92;100.00
37878;BME280;23715;53.652;8.516;2023-03-04T08:34:10;102331.30;;;6.16;100.00
37878;BME280;23715;53.652;8.516;2023-03-04T08:39:12;102316.36;;;6.01;100.00
37878;BME280;23715;53.652;8.516;2023-03-04T08:44:15;102311.99;;;5.99;100.00
37878;BME280;23715;53.652;8.516;2023-03-04T08:49:15;102329.30;;;5.46;100.00
37878;BME280;23715;53.652;8.516;2023-03-04T08:54:15;102342.30;;;5.65;100.00
37878;BME280;23715;53.652;8.516;2023-03-04T08:59:17;102341.66;;;6.13;100.00
37878;BME280;23715;53.652;8.516;2023-03-04T09:04:17;102335.05;;;6.01;100.00
37878;BME280;23715;53.652;8.516;2023-03-04T09:09:19;102333.70;;;6.32;100.00
37878;BME280;23715;53.652;8.516;2023-03-04T09:14:19;102355.72;;;5.74;100.00
37878;BME280;23715;53.652;8.516;2023-03-04T09:19:21;102354.72;;;5.99;100.00
37878;BME280;23715;53.652;8.516;2023-03-04T09:24:24;102340.45;;;5.78;100.00
37878;BME280;23715;53.652;8.516;2023-03-04T09:29:24;102320.95;;;6.08;100.00
37878;BME280;23715;53.652;8.516;2023-03-04T09:34:25;102314.78;;;6.37;100.00
37878;BME280;23715;53.652;8.516;2023-03-04T09:39:31;102306.03;;;5.92;100.00
37878;BME280;23715;53.652;8.516;2023-03-04T09:44:37;102303.11;;;6.09;100.00
37878;BME280;23715;53.652;8.516;2023-03-04T09:49:47;102298.72;;;6.28;100.00
37878;BME280;23715;53.652;8.516;2023-03-04T10:00:09;102306.03;;;6.33;100.00
37878;BME280;23715;53.652;8.516;2023-03-04T10:05:16;102299.44;;;6.01;100.00
37878;BME280;23715;53.652;8.516;2023-03-04T10:10:31;102303.02;;;5.79;100.00
37878;BME280;23715;53.652;8.516;2023-03-04T10:15:37;102311.83;;;5.71;100.00
37878;BME280;23715;53.652;8.516;2023-03-04T10:20:50;102289.31;;;5.66;100.00
37878;BME280;23715;53.652;8.516;2023-03-04T10:25:51;102307.16;;;5.86;100.00
37878;BME280;23715;53.652;8.516;2023-03-04T10:31:11;102311.61;;;5.86;100.00
37878;BME280;23715;53.652;8.516;2023-03-04T10:41:31;102305.25;;;5.25;100.00
37878;BME280;23715;53.652;8.516;2023-03-04T10:46:32;102341.50;;;5.63;100.00
37878;BME280;23715;53.652;8.516;2023-03-04T10:51:40;102346.72;;;5.33;100.00
37878;BME280;23715;53.652;8.516;2023-03-04T10:56:40;102353.20;;;6.03;100.00
37878;BME280;23715;53.652;8.516;2023-03-04T11:01:43;102353.20;;;6.03;100.00
37878;BME280;23715;53.652;8.516;2023-03-04T11:06:42;102325.55;;;6.04;100.00
37878;BME280;23715;53.652;8.516;2023-03-04T11:11:43;102309.83;;;5.86;100.00
37878;BME280;23715;53.652;8.516;2023-03-04T11:16:56;102306.33;;;5.74;100.00
37878;BME280;23715;53.652;8.516;2023-03-04T11:21:48;102285.66;;;5.90;100.00
37878;BME280;23715;53.652;8.516;2023-03-04T11:26:52;102275.14;;;6.47;100.00
37878;BME280;23715;53.652;8.516;2023-03-04T11:31:56;102278.30;;;6.46;100.00
37878;BME280;23715;53.652;8.516;2023-03-04T11:42:38;102262.36;;;5.93;100.00
37878;BME280;23715;53.652;8.516;2023-03-04T11:53:17;102258.47;;;5.59;100.00
37878;BME280;23715;53.652;8.516;2023-03-04T11:58:43;102262.66;;;6.08;100.00
37878;BME280;23715;53.652;8.516;2023-03-04T12:14:44;102222.38;;;6.22;100.00
37878;BME280;23715;53.652;8.516;2023-03-04T12:20:02;102210.30;;;5.73;100.00
37878;BME280;23715;53.652;8.516;2023-03-04T12:25:17;102210.30;;;5.73;100.00
37878;BME280;23715;53.652;8.516;2023-03-04T12:30:33;102220.58;;;5.82;100.00
37878;BME280;23715;53.652;8.516;2023-03-04T12:40:56;102222.57;;;6.28;100.00
37878;BME280;23715;53.652;8.516;2023-03-04T12:46:03;102211.23;;;6.61;100.00
37878;BME280;23715;53.652;8.516;2023-03-04T12:56:32;102203.77;;;6.30;100.00
37878;BME280;23715;53.652;8.516;2023-03-04T13:01:31;102195.31;;;6.20;100.00
37878;BME280;23715;53.652;8.516;2023-03-04T13:11:49;102186.41;;;6.49;100.00
37878;BME280;23715;53.652;8.516;2023-03-04T13:16:59;102181.16;;;6.75;100.00
37878;BME280;23715;53.652;8.516;2023-03-04T13:21:57;102181.48;;;6.50;100.00
37878;BME280;23715;53.652;8.516;2023-03-04T13:27:00;102186.33;;;6.41;100.00
37878;BME280;23715;53.652;8.516;2023-03-04T13:32:07;102178.66;;;6.15;100.00
37878;BME280;23715;53.652;8.516;2023-03-04T13:37:28;102174.55;;;6.73;100.00
37878;BME280;23715;53.652;8.516;2023-03-04T13:42:42;102174.84;;;6.39;100.00
37878;BME280;23715;53.652;8.516;2023-03-04T13:47:44;102184.92;;;6.14;100.00
37878;BME280;23715;53.652;8.516;2023-03-04T13:52:47;102183.17;;;6.23;100.00
37878;BME280;23715;53.652;8.516;2023-03-04T13:57:50;102202.34;;;6.22;100.00
37878;BME280;23715;53.652;8.516;2023-03-04T14:02:50;102181.59;;;6.09;100.00
37878;BME280;23715;53.652;8.516;2023-03-04T14:07:51;102186.02;;;6.75;100.00
37878;BME280;23715;53.652;8.516;2023-03-04T14:12:56;102157.97;;;6.10;100.00
37878;BME280;23715;53.652;8.516;2023-03-04T14:18:00;102169.98;;;6.10;100.00
37878;BME280;23715;53.652;8.516;2023-03-04T14:23:03;102165.67;;;6.45;100.00
37878;BME280;23715;53.652;8.516;2023-03-04T14:28:15;102166.39;;;6.00;100.00
37878;BME280;23715;53.652;8.516;2023-03-04T14:33:20;102156.06;;;5.82;100.00
37878;BME280;23715;53.652;8.516;2023-03-04T14:43:27;102166.27;;;5.83;100.00
37878;BME280;23715;53.652;8.516;2023-03-04T14:48:34;102166.86;;;5.79;100.00
37878;BME280;23715;53.652;8.516;2023-03-04T14:53:32;102166.86;;;5.79;100.00
37878;BME280;23715;53.652;8.516;2023-03-04T14:58:38;102158.92;;;5.98;100.00
37878;BME280;23715;53.652;8.516;2023-03-04T15:03:54;102157.30;;;5.94;100.00
37878;BME280;23715;53.652;8.516;2023-03-04T15:08:45;102159.30;;;6.10;100.00
37878;BME280;23715;53.652;8.516;2023-03-04T15:13:49;102154.50;;;5.97;100.00
37878;BME280;23715;53.652;8.516;2023-03-04T15:19:02;102153.45;;;5.81;100.00
37878;BME280;23715;53.652;8.516;2023-03-04T15:24:06;102160.00;;;5.53;100.00
37878;BME280;23715;53.652;8.516;2023-03-04T15:29:19;102142.94;;;5.47;100.00
37878;BME280;23715;53.652;8.516;2023-03-04T15:34:17;102155.73;;;5.70;100.00
37878;BME280;23715;53.652;8.516;2023-03-04T15:39:18;102159.92;;;5.65;100.00
37878;BME280;23715;53.652;8.516;2023-03-04T15:44:23;102162.35;;;5.51;100.00
37878;BME280;23715;53.652;8.516;2023-03-04T15:49:24;102156.38;;;5.75;100.00
37878;BME280;23715;53.652;8.516;2023-03-04T15:54:26;102150.92;;;5.37;100.00
37878;BME280;23715;53.652;8.516;2023-03-04T15:59:30;102158.75;;;5.41;100.00
37878;BME280;23715;53.652;8.516;2023-03-04T16:04:32;102151.58;;;5.83;100.00
37878;BME280;23715;53.652;8.516;2023-03-04T16:09:32;102146.30;;;5.81;100.00
37878;BME280;23715;53.652;8.516;2023-03-04T16:14:34;102143.31;;;5.79;100.00
37878;BME280;23715;53.652;8.516;2023-03-04T16:19:34;102139.05;;;5.44;100.00
37878;BME280;23715;53.652;8.516;2023-03-04T16:24:36;102122.67;;;5.43;100.00
37878;BME280;23715;53.652;8.516;2023-03-04T16:29:41;102124.50;;;5.72;100.00
37878;BME280;23715;53.652;8.516;2023-03-04T16:34:41;102123.19;;;5.31;100.00
37878;BME280;23715;53.652;8.516;2023-03-04T16:39:47;102125.44;;;5.50;100.00
37878;BME280;23715;53.652;8.516;2023-03-04T16:44:48;102121.78;;;5.42;100.00
37878;BME280;23715;53.652;8.516;2023-03-04T16:49:54;102126.66;;;5.22;100.00
37878;BME280;23715;53.652;8.516;2023-03-04T16:54:54;102126.91;;;5.37;100.00
37878;BME280;23715;53.652;8.516;2023-03-04T16:59:55;102119.19;;;5.31;100.00
37878;BME280;23715;53.652;8.516;2023-03-04T17:04:57;102126.00;;;5.27;100.00
37878;BME280;23715;53.652;8.516;2023-03-04T17:09:59;102145.08;;;5.39;100.00
37878;BME280;23715;53.652;8.516;2023-03-04T17:14:58;102175.05;;;5.03;100.00
37878;BME280;23715;53.652;8.516;2023-03-04T17:20:03;102184.67;;;4.39;100.00
37878;BME280;23715;53.652;8.516;2023-03-04T17:25:04;102206.27;;;4.32;100.00
37878;BME280;23715;53.652;8.516;2023-03-04T17:30:06;102220.99;;;4.76;100.00
37878;BME280;23715;53.652;8.516;2023-03-04T17:35:07;102220.99;;;4.76;100.00
37878;BME280;23715;53.652;8.516;2023-03-04T17:40:09;102202.97;;;4.82;100.00
37878;BME280;23715;53.652;8.516;2023-03-04T17:45:14;102185.02;;;4.54;100.00
37878;BME280;23715;53.652;8.516;2023-03-04T17:50:16;102181.77;;;4.79;100.00
37878;BME280;23715;53.652;8.516;2023-03-04T17:55:16;102183.16;;;5.00;100.00
37878;BME280;23715;53.652;8.516;2023-03-04T18:00:18;102187.38;;;5.16;100.00
37878;BME280;23715;53.652;8.516;2023-03-04T18:05:18;102186.45;;;4.50;100.00
37878;BME280;23715;53.652;8.516;2023-03-04T18:10:18;102194.06;;;4.02;100.00
37878;BME280;23715;53.652;8.516;2023-03-04T18:15:18;102214.27;;;4.20;100.00
37878;BME280;23715;53.652;8.516;2023-03-04T18:20:18;102231.23;;;4.41;100.00
37878;BME280;23715;53.652;8.516;2023-03-04T18:25:19;102234.00;;;4.61;100.00
37878;BME280;23715;53.652;8.516;2023-03-04T18:30:21;102240.04;;;4.88;100.00
37878;BME280;23715;53.652;8.516;2023-03-04T18:35:23;102233.45;;;5.41;100.00
37878;BME280;23715;53.652;8.516;2023-03-04T18:40:23;102200.83;;;5.76;100.00
37878;BME280;23715;53.652;8.516;2023-03-04T18:45:25;102183.80;;;4.95;100.00
37878;BME280;23715;53.652;8.516;2023-03-04T18:50:26;102178.78;;;4.87;100.00
37878;BME280;23715;53.652;8.516;2023-03-04T18:55:26;102173.71;;;4.81;100.00
37878;BME280;23715;53.652;8.516;2023-03-04T19:00:27;102182.37;;;4.64;100.00
37878;BME280;23715;53.652;8.516;2023-03-04T19:05:29;102198.73;;;4.07;100.00
37878;BME280;23715;53.652;8.516;2023-03-04T19:10:30;102218.98;;;4.11;100.00
37878;BME280;23715;53.652;8.516;2023-03-04T19:15:31;102215.52;;;3.73;100.00
37878;BME280;23715;53.652;8.516;2023-03-04T19:20:33;102237.14;;;4.00;100.00
37878;BME280;23715;53.652;8.516;2023-03-04T19:25:36;102237.66;;;4.35;100.00
37878;BME280;23715;53.652;8.516;2023-03-04T19:30:40;102246.30;;;3.93;100.00
37878;BME280;23715;53.652;8.516;2023-03-04T19:35:41;102251.54;;;4.43;100.00
37878;BME280;23715;53.652;8.516;2023-03-04T19:40:42;102249.64;;;4.35;100.00
37878;BME280;23715;53.652;8.516;2023-03-04T19:45:58;102254.49;;;4.24;100.00
37878;BME280;23715;53.652;8.516;2023-03-04T19:50:54;102273.75;;;4.19;100.00
37878;BME280;23715;53.652;8.516;2023-03-04T19:55:55;102298.17;;;4.06;100.00
37878;BME280;23715;53.652;8.516;2023-03-04T20:00:56;102321.78;;;3.77;100.00
37878;BME280;23715;53.652;8.516;2023-03-04T20:06:04;102348.91;;;3.88;100.00
37878;BME280;23715;53.652;8.516;2023-03-04T20:11:11;102364.01;;;4.01;100.00
37878;BME280;23715;53.652;8.516;2023-03-04T20:16:14;102377.00;;;4.61;100.00
37878;BME280;23715;53.652;8.516;2023-03-04T20:21:16;102351.86;;;4.44;100.00
37878;BME280;23715;53.652;8.516;2023-03-04T20:26:19;102337.31;;;4.53;100.00
37878;BME280;23715;53.652;8.516;2023-03-04T20:31:26;102325.34;;;4.88;100.00
37878;BME280;23715;53.652;8.516;2023-03-04T20:36:29;102307.78;;;4.83;100.00
37878;BME280;23715;53.652;8.516;2023-03-04T20:41:29;102307.33;;;4.60;100.00
37878;BME280;23715;53.652;8.516;2023-03-04T20:46:35;102317.36;;;4.28;100.00
37878;BME280;23715;53.652;8.516;2023-03-04T20:51:38;102346.16;;;4.42;100.00
37878;BME280;23715;53.652;8.516;2023-03-04T20:56:38;102340.78;;;3.93;100.00
37878;BME280;23715;53.652;8.516;2023-03-04T21:01:42;102365.40;;;4.25;100.00
37878;BME280;23715;53.652;8.516;2023-03-04T21:06:42;102383.23;;;4.97;100.00
37878;BME280;23715;53.652;8.516;2023-03-04T21:11:44;102357.38;;;4.87;100.00
37878;BME280;23715;53.652;8.516;2023-03-04T21:16:52;102279.11;;;4.89;100.00
37878;BME280;23715;53.652;8.516;2023-03-04T21:21:54;102270.41;;;4.84;100.00
37878;BME280;23715;53.652;8.516;2023-03-04T21:26:55;102233.77;;;5.12;100.00
37878;BME280;23715;53.652;8.516;2023-03-04T21:32:05;102198.81;;;4.75;100.00
37878;BME280;23715;53.652;8.516;2023-03-04T21:37:02;102184.42;;;4.79;100.00
37878;BME280;23715;53.652;8.516;2023-03-04T21:42:03;102170.21;;;4.35;100.00
37878;BME280;23715;53.652;8.516;2023-03-04T21:47:03;102157.03;;;4.76;100.00
37878;BME280;23715;53.652;8.516;2023-03-04T21:52:03;102142.69;;;4.34;100.00
37878;BME280;23715;53.652;8.516;2023-03-04T21:57:04;102126.15;;;4.26;100.00
37878;BME280;23715;53.652;8.516;2023-03-04T22:02:05;102103.56;;;4.58;100.00
37878;BME280;23715;53.652;8.516;2023-03-04T22:07:05;102091.95;;;4.27;100.00
37878;BME280;23715;53.652;8.516;2023-03-04T22:12:06;102086.03;;;4.19;100.00
37878;BME280;23715;53.652;8.516;2023-03-04T22:17:06;102071.58;;;4.36;100.00
37878;BME280;23715;53.652;8.516;2023-03-04T22:22:06;102061.92;;;4.88;100.00
37878;BME280;23715;53.652;8.516;2023-03-04T22:27:06;102065.94;;;4.44;100.00
37878;BME280;23715;53.652;8.516;2023-03-04T22:32:06;102059.43;;;4.73;100.00
37878;BME280;23715;53.652;8.516;2023-03-04T22:37:06;102074.89;;;4.85;100.00
37878;BME280;23715;53.652;8.516;2023-03-04T22:42:06;102090.41;;;3.98;100.00
37878;BME280;23715;53.652;8.516;2023-03-04T22:47:08;102107.04;;;3.44;100.00
37878;BME280;23715;53.652;8.516;2023-03-04T22:52:09;102144.37;;;3.41;100.00
37878;BME280;23715;53.652;8.516;2023-03-04T22:57:09;102144.37;;;3.41;100.00
37878;BME280;23715;53.652;8.516;2023-03-04T23:02:09;102170.81;;;3.19;100.00
37878;BME280;23715;53.652;8.516;2023-03-04T23:07:09;102186.84;;;3.30;100.00
37878;BME280;23715;53.652;8.516;2023-03-04T23:12:10;102202.61;;;3.48;100.00
37878;BME280;23715;53.652;8.516;2023-03-04T23:17:10;102211.77;;;3.53;100.00
37878;BME280;23715;53.652;8.516;2023-03-04T23:22:10;102225.89;;;3.55;100.00
37878;BME280;23715;53.652;8.516;2023-03-04T23:27:10;102251.05;;;3.31;100.00
37878;BME280;23715;53.652;8.516;2023-03-04T23:32:11;102279.91;;;3.57;100.00
37878;BME280;23715;53.652;8.516;2023-03-04T23:37:11;102292.91;;;3.53;100.00
37878;BME280;23715;53.652;8.516;2023-03-04T23:42:11;102317.19;;;3.69;100.00
37878;BME280;23715;53.652;8.516;2023-03-04T23:47:12;102317.19;;;3.82;100.00
37878;BME280;23715;53.652;8.516;2023-03-04T23:52:12;102296.09;;;3.89;100.00
37878;BME280;23715;53.652;8.516;2023-03-04T23:57:12;102273.34;;;3.93;100.00
